Time,TemperatureF,DewpointF,PressureIn,WindDirection,WindDirectionDegrees,WindSpeedMPH,WindSpeedGustMPH,Humidity,HourlyPrecipIn,Conditions,Clouds,dailyrainin,SoftwareType,DateUTC
2013-07-25 00:02:00,64.0,58.0,29.96,NNE,24,3.0,7.0,81,0.00,,,0.00,,2013-07-25 04:02:00,
2013-07-25 00:43:00,63.0,57.0,29.96,NNE,23,2.0,4.0,81,0.00,,,0.00,,2013-07-25 04:43:00,
2013-07-25 01:02:00,63.0,57.0,29.96,North,5,1.0,4.0,80,0.00,,,0.00,,2013-07-25 05:02:00,
2013-07-25 01:43:00,62.0,56.0,29.96,NNE,22,1.0,4.0,80,0.00,,,0.00,,2013-07-25 05:43:00,
2013-07-25 01:52:00,62.0,56.0,29.96,NNE,26,1.0,3.0,82,0.00,,,0.00,,2013-07-25 05:52:00,
2013-07-25 02:32:00,61.0,55.0,29.96,NNE,29,1.0,3.0,81,0.00,,,0.00,,2013-07-25 06:32:00,
2013-07-25 02:42:00,61.0,55.0,29.96,NNE,14,1.0,3.0,82,0.00,,,0.00,,2013-07-25 06:42:00,
2013-07-25 02:52:00,61.0,55.0,29.96,NE,44,1.0,4.0,82,0.00,,,0.00,,2013-07-25 06:52:00,
2013-07-25 03:02:00,61.0,55.0,29.96,North,11,1.0,4.0,82,0.00,,,0.00,,2013-07-25 07:02:00,
2013-07-25 03:12:00,60.0,54.0,29.96,NE,34,1.0,5.0,82,0.00,,,0.00,,2013-07-25 07:12:00,
2013-07-25 03:22:00,60.0,54.0,29.96,NNW,340,1.0,5.0,82,0.00,,,0.00,,2013-07-25 07:22:00,
2013-07-25 03:33:00,60.0,54.0,29.95,NE,40,1.0,5.0,82,0.00,,,0.00,,2013-07-25 07:33:00,
2013-07-25 03:43:00,60.0,55.0,29.96,North,11,1.0,7.0,83,0.00,,,0.00,,2013-07-25 07:43:00,
2013-07-25 03:53:00,60.0,55.0,29.96,NNE,19,1.0,3.0,83,0.00,,,0.00,,2013-07-25 07:53:00,
2013-07-25 04:02:00,60.0,55.0,29.96,NNE,24,0.0,3.0,84,0.00,,,0.00,,2013-07-25 08:02:00,
2013-07-25 04:12:00,59.0,54.0,29.96,NNE,25,1.0,3.0,84,0.00,,,0.00,,2013-07-25 08:12:00,
2013-07-25 04:22:00,59.0,54.0,29.96,NNE,25,0.0,2.0,84,0.00,,,0.00,,2013-07-25 08:22:00,
2013-07-25 04:52:00,59.0,55.0,29.96,NNE,16,1.0,4.0,86,0.00,,,0.00,,2013-07-25 08:52:00,
2013-07-25 05:02:00,58.0,54.0,29.96,NNW,348,1.0,5.0,87,0.00,,,0.00,,2013-07-25 09:02:00,
2013-07-25 05:12:00,58.0,54.0,29.97,NNE,19,2.0,3.0,87,0.00,,,0.00,,2013-07-25 09:12:00,
2013-07-25 05:22:00,58.0,54.0,29.97,NNE,19,1.0,4.0,87,0.00,,,0.00,,2013-07-25 09:22:00,
2013-07-25 05:43:00,58.0,55.0,29.98,North,11,1.0,2.0,89,0.00,,,0.00,,2013-07-25 09:43:00,
2013-07-25 05:52:00,58.0,55.0,29.98,NNW,347,1.0,3.0,89,0.00,,,0.00,,2013-07-25 09:52:00,
2013-07-25 06:02:00,57.0,54.0,29.98,North,355,1.0,4.0,90,0.00,,,0.00,,2013-07-25 10:02:00,
2013-07-25 06:12:00,57.0,53.0,29.99,North,355,1.0,3.0,88,0.00,,,0.00,,2013-07-25 10:12:00,
2013-07-25 07:02:00,57.0,54.0,29.99,NNE,13,1.0,3.0,91,0.00,,,0.00,,2013-07-25 11:02:00,
2013-07-25 07:43:00,58.0,55.0,30.01,NNW,331,2.0,4.0,89,0.00,,,0.00,,2013-07-25 11:43:00,
2013-07-25 08:03:00,59.0,55.0,30.00,North,355,1.0,5.0,88,0.00,,,0.00,,2013-07-25 12:03:00,
2013-07-25 08:45:00,61.0,55.0,30.01,NNW,342,1.0,4.0,82,0.00,,,0.00,,2013-07-25 12:45:00,
2013-07-25 10:02:00,66.0,57.0,30.02,NNW,339,2.0,5.0,74,0.00,,,0.00,,2013-07-25 14:02:00,
2013-07-25 10:43:00,69.0,56.0,30.03,North,5,3.0,6.0,64,0.00,,,0.00,,2013-07-25 14:43:00,
2013-07-25 11:12:00,70.0,56.0,30.04,North,5,4.0,9.0,62,0.00,,,0.00,,2013-07-25 15:12:00,
2013-07-25 11:44:00,71.0,54.0,30.03,WNW,283,4.0,9.0,56,0.00,,,0.00,,2013-07-25 15:44:00,
2013-07-25 11:52:00,71.0,55.0,30.03,NE,49,3.0,10.0,57,0.00,,,0.00,,2013-07-25 15:52:00,
2013-07-25 12:33:00,72.0,56.0,30.04,North,0,3.0,10.0,57,0.00,,,0.00,,2013-07-25 16:33:00,
2013-07-25 13:03:00,72.0,54.0,30.04,NNW,348,4.0,7.0,54,0.00,,,0.00,,2013-07-25 17:03:00,
2013-07-25 14:02:00,74.0,55.0,30.04,North,5,3.0,8.0,51,0.00,,,0.00,,2013-07-25 18:02:00,
2013-07-25 14:43:00,74.0,55.0,30.04,NNW,336,3.0,6.0,51,0.00,,,0.00,,2013-07-25 18:43:00,
2013-07-25 15:33:00,74.0,53.0,30.04,NW,323,6.0,8.0,48,0.00,,,0.00,,2013-07-25 19:33:00,
2013-07-25 15:43:00,75.0,53.0,30.03,NW,304,4.0,11.0,46,0.00,,,0.00,,2013-07-25 19:43:00,
2013-07-25 16:32:00,75.0,53.0,30.03,NNE,28,5.0,9.0,47,0.00,,,0.00,,2013-07-25 20:32:00,
2013-07-25 17:44:00,76.0,57.0,30.02,North,350,3.0,6.0,51,0.00,,,0.00,,2013-07-25 21:44:00,
2013-07-25 17:52:00,76.0,56.0,30.02,NNW,333,3.0,7.0,50,0.00,,,0.00,,2013-07-25 21:52:00,
2013-07-25 18:52:00,76.0,55.0,30.01,North,0,2.0,5.0,48,0.00,,,0.00,,2013-07-25 22:52:00,
2013-07-25 19:32:00,75.0,55.0,30.01,NNE,19,3.0,6.0,50,0.00,,,0.00,,2013-07-25 23:32:00,
2013-07-25 19:52:00,75.0,56.0,30.01,North,9,3.0,5.0,52,0.00,,,0.00,,2013-07-25 23:52:00,
2013-07-25 20:02:00,76.0,57.0,30.01,East,88,1.0,5.0,51,0.00,,,0.00,,2013-07-26 00:02:00,
2013-07-25 20:12:00,75.0,56.0,30.01,East,79,4.0,7.0,51,0.00,,,0.00,,2013-07-26 00:12:00,
2013-07-25 20:33:00,75.0,56.0,30.01,East,95,3.0,5.0,51,0.00,,,0.00,,2013-07-26 00:33:00,
2013-07-25 20:43:00,74.0,55.0,30.01,ESE,114,2.0,5.0,52,0.00,,,0.00,,2013-07-26 00:43:00,
2013-07-25 20:52:00,74.0,56.0,30.01,SE,139,2.0,5.0,53,0.00,,,0.00,,2013-07-26 00:52:00,
2013-07-25 21:43:00,72.0,56.0,30.02,North,10,0.0,0.0,58,0.00,,,0.00,,2013-07-26 01:43:00,
2013-07-25 22:43:00,71.0,59.0,30.03,WNW,288,0.0,2.0,65,0.00,,,0.00,,2013-07-26 02:43:00,